Other Surface Observations
Issued by NWS Great Falls, MT

Home | Current Version | Previous Version | Text Only | Print | Product List | Glossary On
Versions: 1 2 3 4 5 6 7 8 9 10 11 12 13 14 15 16 17 18 19 20 21 22 23 24 25 26 27 28 29 30 31 32 33 34 35 36 37 38 39 40 41 42 43 44 45 46 47 48 49 50
499
SXUS55 KTFX 210011
OSOTFX

AREA AWOS OBSERVATIONS
NATIONAL WEATHER SERVICE GREAT FALLS MT
0510 PM MST Mon Feb 20 2017

METAR K6S8 202355Z AUTO 16009KT 40SM 12/M03 A2965 RMK A01 T01161033
METAR K7S0 21000Z AUTO 11004KT 10SM 03/02 A2968 RMK A01 T00270016
METAR K7S0 202255Z AUTO 25001KT 40SM 02/01 A2967 RMK A01 T00220005
METAR K7S1 202355Z AUTO 12004KT 25SM 07/00 A2974 RMK A01 T00660000
METAR K97M 21000Z AUTO 14003KT 40SM 10/M06 A2973 RMK A01 T01001055
METAR K97M 202255Z AUTO 16002KT 40SM 12/M07 A2973 RMK A01 T01161066
METAR K9S2 202355Z AUTO 23002KT 40SM 07/M05 A2966 RMK A01 T00661050
METAR K9S2 202255Z AUTO 23005KT 40SM 09/M05 A2966 RMK A01 T00941050
METAR K9S5 202355Z AUTO 26007KT 40SM 09/M46 A2972 RMK A01 T00881455
METAR KRPX 202255Z AUTO 18010KT 40SM 12/M04 A2958 RMK A01 T01161044
METAR KS01 202355Z AUTO 19008KT 40SM 10/05 A2960 RMK A01 T01000050
METAR KS01 202355Z AUTO 19008KT 40SM 10/05 A2960 RMK A01 T01000050
METAR KS01 202255Z AUTO 16012KT 40SM 09/06 A2960 RMK A01 T00940055
METAR KS34 202355Z AUTO  3 1/2SM 02/M01 A2964 RMK A01 T00161005
METAR KS34 202255Z AUTO  5SM 02/M01 A2963 RMK A01 T00161005
METAR KTHM 21001Z AUTO 10000KT 5SM 02/01 A2967 RMK A01 T00220011



USA.gov is the U.S. government's official web portal to all federal, state and local government web resources and services.